Al-Jawf Domestic Airport

Airport
ICAO code: 
OESK
Summary
ICAO Region: 
MID
Territory: 
Location: 
Al-Jawf,
Coordinates: 
Aerial View: 
29° 47' 4.999" N, 40° 6' 5" E
Metar
Observation
OESK 052200Z 33012KT 7000 NSC 15/M01 Q1021
Station
Al-Jouf
Date/Time
2021-12-05 22:00:00
Wind direction
330°
Wind speed
12 kts
Lowest cloud amount
nil significant cloud
Temperature
15°C
Dew point
-1°C
Humidity
33%
QNH
1021 hPa
Weather condition
n/a

Description

Al-Jawf Domestic Airport is located 20 km northeast of Al-Jawf (Al-Jouf), Saudi Arabia.

Climatology

Hot Desert Climate (Köppen climate classification BWh) - Hot desert climates are typically found in the subtropics where there is unbroken sunshine for the whole year due to the stable descending air and high pressure, little or no precipitation. Maximum temperatures of 40°C to 45°C are not uncommon, particularly during the warmer months of the year. During colder periods of the year, night-time temperatures can drop to freezing or below due to the exceptional radiation loss under the clear skies. However, very rarely do temperatures drop far below freezing.

Runways

Designator Length Width Surface Rops
10/28 3661 45 ASP Yes/Yes
Airport map: 
Aerial View: 

SKYbrary Partners:

Safety knowledge contributed by: